sensor_id;sensor_type;location;lat;lon;timestamp;temperature;humidity
7167;DHT22;3625;51.762;14.320;2022-12-10T00:04:18;1.10;99.90
7167;DHT22;3625;51.762;14.320;2022-12-10T00:09:19;1.30;99.90
7167;DHT22;3625;51.762;14.320;2022-12-10T00:14:17;1.30;99.90
7167;DHT22;3625;51.762;14.320;2022-12-10T00:16:46;1.40;99.90
7167;DHT22;3625;51.762;14.320;2022-12-10T00:21:43;1.30;99.90
7167;DHT22;3625;51.762;14.320;2022-12-10T00:36:42;1.30;99.90
7167;DHT22;3625;51.762;14.320;2022-12-10T00:39:16;1.30;99.90
7167;DHT22;3625;51.762;14.320;2022-12-10T00:41:46;1.30;99.90
7167;DHT22;3625;51.762;14.320;2022-12-10T00:44:16;1.30;99.90
7167;DHT22;3625;51.762;14.320;2022-12-10T00:54:11;1.40;99.90
7167;DHT22;3625;51.762;14.320;2022-12-10T00:56:41;1.40;99.90
7167;DHT22;3625;51.762;14.320;2022-12-10T01:01:40;1.30;99.90
7167;DHT22;3625;51.762;14.320;2022-12-10T01:04:12;1.30;99.90
7167;DHT22;3625;51.762;14.320;2022-12-10T01:06:44;1.30;99.90
7167;DHT22;3625;51.762;14.320;2022-12-10T01:09:17;1.30;99.90
7167;DHT22;3625;51.762;14.320;2022-12-10T01:11:49;1.30;99.90
7167;DHT22;3625;51.762;14.320;2022-12-10T01:14:21;1.40;99.90
7167;DHT22;3625;51.762;14.320;2022-12-10T01:16:54;1.30;99.90
7167;DHT22;3625;51.762;14.320;2022-12-10T01:21:53;1.20;99.90
7167;DHT22;3625;51.762;14.320;2022-12-10T01:24:23;1.20;99.90
7167;DHT22;3625;51.762;14.320;2022-12-10T01:26:54;1.20;99.90
7167;DHT22;3625;51.762;14.320;2022-12-10T01:31:52;1.30;99.90
7167;DHT22;3625;51.762;14.320;2022-12-10T01:39:24;1.30;99.90
7167;DHT22;3625;51.762;14.320;2022-12-10T01:41:56;1.30;99.90
7167;DHT22;3625;51.762;14.320;2022-12-10T01:45:01;1.30;99.90
7167;DHT22;3625;51.762;14.320;2022-12-10T01:50:05;1.30;99.90
7167;DHT22;3625;51.762;14.320;2022-12-10T01:52:37;1.20;99.90
7167;DHT22;3625;51.762;14.320;2022-12-10T01:58:16;1.20;99.90
7167;DHT22;3625;51.762;14.320;2022-12-10T02:00:58;1.20;99.90
7167;DHT22;3625;51.762;14.320;2022-12-10T02:03:41;1.20;99.90
7167;DHT22;3625;51.762;14.320;2022-12-10T02:06:40;1.20;99.90
7167;DHT22;3625;51.762;14.320;2022-12-10T02:09:20;1.20;99.90
7167;DHT22;3625;51.762;14.320;2022-12-10T02:12:02;1.20;99.90
7167;DHT22;3625;51.762;14.320;2022-12-10T02:14:48;1.20;99.90
7167;DHT22;3625;51.762;14.320;2022-12-10T02:17:25;1.10;99.90
7167;DHT22;3625;51.762;14.320;2022-12-10T02:20:04;1.20;99.90
7167;DHT22;3625;51.762;14.320;2022-12-10T02:22:40;1.20;99.90
7167;DHT22;3625;51.762;14.320;2022-12-10T02:25:15;1.20;99.90
7167;DHT22;3625;51.762;14.320;2022-12-10T02:27:52;1.20;99.90
7167;DHT22;3625;51.762;14.320;2022-12-10T02:30:28;1.20;99.90
7167;DHT22;3625;51.762;14.320;2022-12-10T02:33:00;1.20;99.90
7167;DHT22;3625;51.762;14.320;2022-12-10T02:35:33;1.20;99.90
7167;DHT22;3625;51.762;14.320;2022-12-10T02:38:08;1.10;99.90
7167;DHT22;3625;51.762;14.320;2022-12-10T02:40:46;1.10;99.90
7167;DHT22;3625;51.762;14.320;2022-12-10T02:43:20;1.10;99.90
7167;DHT22;3625;51.762;14.320;2022-12-10T02:45:54;1.10;99.90
7167;DHT22;3625;51.762;14.320;2022-12-10T02:48:25;1.10;99.90
7167;DHT22;3625;51.762;14.320;2022-12-10T02:56:03;1.10;99.90
7167;DHT22;3625;51.762;14.320;2022-12-10T02:58:51;1.10;99.90
7167;DHT22;3625;51.762;14.320;2022-12-10T03:01:40;1.10;99.90
7167;DHT22;3625;51.762;14.320;2022-12-10T03:04:17;1.10;99.90
7167;DHT22;3625;51.762;14.320;2022-12-10T03:06:53;1.00;99.90
7167;DHT22;3625;51.762;14.320;2022-12-10T03:09:29;1.00;99.90
7167;DHT22;3625;51.762;14.320;2022-12-10T03:12:08;1.00;99.90
7167;DHT22;3625;51.762;14.320;2022-12-10T03:14:44;0.90;99.90
7167;DHT22;3625;51.762;14.320;2022-12-10T03:17:15;0.90;99.90
7167;DHT22;3625;51.762;14.320;2022-12-10T03:19:46;0.90;99.90
7167;DHT22;3625;51.762;14.320;2022-12-10T03:22:19;1.00;99.90
7167;DHT22;3625;51.762;14.320;2022-12-10T03:24:48;0.90;99.90
7167;DHT22;3625;51.762;14.320;2022-12-10T03:27:19;0.90;99.90
7167;DHT22;3625;51.762;14.320;2022-12-10T03:29:54;0.80;99.90
7167;DHT22;3625;51.762;14.320;2022-12-10T03:32:28;0.80;99.90
7167;DHT22;3625;51.762;14.320;2022-12-10T03:34:59;0.90;99.90
7167;DHT22;3625;51.762;14.320;2022-12-10T03:37:29;0.90;99.90
7167;DHT22;3625;51.762;14.320;2022-12-10T03:47:26;0.70;99.90
7167;DHT22;3625;51.762;14.320;2022-12-10T03:59:49;0.80;99.90
7167;DHT22;3625;51.762;14.320;2022-12-10T04:04:48;0.80;99.90
7167;DHT22;3625;51.762;14.320;2022-12-10T04:17:28;0.90;99.90
7167;DHT22;3625;51.762;14.320;2022-12-10T04:20:01;0.80;99.90
7167;DHT22;3625;51.762;14.320;2022-12-10T04:52:53;1.00;99.90
7167;DHT22;3625;51.762;14.320;2022-12-10T05:02:49;0.90;99.90
7167;DHT22;3625;51.762;14.320;2022-12-10T05:05:17;0.90;99.90
7167;DHT22;3625;51.762;14.320;2022-12-10T05:10:16;0.90;99.90
7167;DHT22;3625;51.762;14.320;2022-12-10T05:25:27;1.00;99.90
7167;DHT22;3625;51.762;14.320;2022-12-10T05:42:49;0.90;99.90
7167;DHT22;3625;51.762;14.320;2022-12-10T05:50:16;1.00;99.90
7167;DHT22;3625;51.762;14.320;2022-12-10T06:00:12;0.90;99.90
7167;DHT22;3625;51.762;14.320;2022-12-10T06:10:08;0.90;99.90
7167;DHT22;3625;51.762;14.320;2022-12-10T06:15:08;0.90;99.90
7167;DHT22;3625;51.762;14.320;2022-12-10T06:20:08;0.90;99.90
7167;DHT22;3625;51.762;14.320;2022-12-10T06:25:07;0.90;99.90
7167;DHT22;3625;51.762;14.320;2022-12-10T06:30:05;0.70;99.90
7167;DHT22;3625;51.762;14.320;2022-12-10T06:35:06;0.70;99.90
7167;DHT22;3625;51.762;14.320;2022-12-10T06:40:05;0.70;99.90
7167;DHT22;3625;51.762;14.320;2022-12-10T06:45:04;0.80;99.90
7167;DHT22;3625;51.762;14.320;2022-12-10T06:55:08;0.80;99.90
7167;DHT22;3625;51.762;14.320;2022-12-10T07:00:06;0.70;99.90
7167;DHT22;3625;51.762;14.320;2022-12-10T07:02:37;0.70;99.90
7167;DHT22;3625;51.762;14.320;2022-12-10T07:05:06;0.60;99.90
7167;DHT22;3625;51.762;14.320;2022-12-10T07:10:05;0.60;99.90
7167;DHT22;3625;51.762;14.320;2022-12-10T07:15:04;0.70;99.90
7167;DHT22;3625;51.762;14.320;2022-12-10T07:20:04;0.60;99.90
7167;DHT22;3625;51.762;14.320;2022-12-10T07:37:27;0.60;99.90
7167;DHT22;3625;51.762;14.320;2022-12-10T07:39:55;0.50;99.90
7167;DHT22;3625;51.762;14.320;2022-12-10T07:42:23;0.60;99.90
7167;DHT22;3625;51.762;14.320;2022-12-10T07:47:20;0.50;99.90
7167;DHT22;3625;51.762;14.320;2022-12-10T07:52:17;0.60;99.90
7167;DHT22;3625;51.762;14.320;2022-12-10T07:54:47;0.60;99.90
7167;DHT22;3625;51.762;14.320;2022-12-10T08:04:41;0.60;99.90
7167;DHT22;3625;51.762;14.320;2022-12-10T08:12:08;0.60;99.90
7167;DHT22;3625;51.762;14.320;2022-12-10T08:44:23;0.60;99.90
7167;DHT22;3625;51.762;14.320;2022-12-10T08:46:53;0.60;99.90
7167;DHT22;3625;51.762;14.320;2022-12-10T08:54:19;0.50;99.90
7167;DHT22;3625;51.762;14.320;2022-12-10T09:04:19;0.60;99.90
7167;DHT22;3625;51.762;14.320;2022-12-10T09:09:17;0.60;99.90
7167;DHT22;3625;51.762;14.320;2022-12-10T09:14:14;0.60;99.90
7167;DHT22;3625;51.762;14.320;2022-12-10T09:21:47;0.80;99.90
7167;DHT22;3625;51.762;14.320;2022-12-10T09:31:43;0.80;99.90
7167;DHT22;3625;51.762;14.320;2022-12-10T09:34:12;0.80;99.90
7167;DHT22;3625;51.762;14.320;2022-12-10T09:36:40;0.80;99.90
7167;DHT22;3625;51.762;14.320;2022-12-10T09:39:10;0.80;99.90
7167;DHT22;3625;51.762;14.320;2022-12-10T09:41:54;0.80;99.90
7167;DHT22;3625;51.762;14.320;2022-12-10T09:44:43;0.90;99.90
7167;DHT22;3625;51.762;14.320;2022-12-10T09:47:24;0.90;99.90
7167;DHT22;3625;51.762;14.320;2022-12-10T09:50:03;1.00;99.90
7167;DHT22;3625;51.762;14.320;2022-12-10T09:52:41;1.10;99.90
7167;DHT22;3625;51.762;14.320;2022-12-10T09:55:17;1.10;99.90
7167;DHT22;3625;51.762;14.320;2022-12-10T09:57:50;1.10;99.90
7167;DHT22;3625;51.762;14.320;2022-12-10T10:00:23;1.00;99.90
7167;DHT22;3625;51.762;14.320;2022-12-10T10:02:58;1.10;99.90
7167;DHT22;3625;51.762;14.320;2022-12-10T10:05:29;1.00;99.90
7167;DHT22;3625;51.762;14.320;2022-12-10T10:08:03;1.10;99.90
7167;DHT22;3625;51.762;14.320;2022-12-10T10:10:36;1.20;99.90
7167;DHT22;3625;51.762;14.320;2022-12-10T10:13:14;1.20;99.90
7167;DHT22;3625;51.762;14.320;2022-12-10T10:15:58;1.10;99.90
7167;DHT22;3625;51.762;14.320;2022-12-10T10:18:44;1.00;99.90
7167;DHT22;3625;51.762;14.320;2022-12-10T10:21:21;1.10;99.90
7167;DHT22;3625;51.762;14.320;2022-12-10T10:26:24;1.30;99.90
7167;DHT22;3625;51.762;14.320;2022-12-10T10:28:57;1.30;99.90
7167;DHT22;3625;51.762;14.320;2022-12-10T10:31:31;1.40;99.90
7167;DHT22;3625;51.762;14.320;2022-12-10T10:34:02;3.50;99.90
7167;DHT22;3625;51.762;14.320;2022-12-10T10:36:35;1.50;99.90
7167;DHT22;3625;51.762;14.320;2022-12-10T10:39:09;1.50;99.90
7167;DHT22;3625;51.762;14.320;2022-12-10T10:41:41;1.40;99.90
7167;DHT22;3625;51.762;14.320;2022-12-10T10:44:15;1.50;99.90
7167;DHT22;3625;51.762;14.320;2022-12-10T10:46:45;1.70;99.90
7167;DHT22;3625;51.762;14.320;2022-12-10T10:49:22;1.70;99.90
7167;DHT22;3625;51.762;14.320;2022-12-10T10:51:58;1.70;99.90
7167;DHT22;3625;51.762;14.320;2022-12-10T10:54:33;1.60;99.90
7167;DHT22;3625;51.762;14.320;2022-12-10T10:57:12;1.60;99.90
7167;DHT22;3625;51.762;14.320;2022-12-10T10:59:46;1.50;99.90
7167;DHT22;3625;51.762;14.320;2022-12-10T11:02:19;1.50;99.90
7167;DHT22;3625;51.762;14.320;2022-12-10T11:04:52;1.50;99.90
7167;DHT22;3625;51.762;14.320;2022-12-10T11:07:24;1.50;99.90
7167;DHT22;3625;51.762;14.320;2022-12-10T11:10:02;1.50;99.90
7167;DHT22;3625;51.762;14.320;2022-12-10T11:12:38;1.60;99.90
7167;DHT22;3625;51.762;14.320;2022-12-10T11:15:30;1.60;99.90
7167;DHT22;3625;51.762;14.320;2022-12-10T11:18:02;1.60;99.90
7167;DHT22;3625;51.762;14.320;2022-12-10T11:20:57;1.60;99.90
7167;DHT22;3625;51.762;14.320;2022-12-10T11:23:38;1.60;99.90
7167;DHT22;3625;51.762;14.320;2022-12-10T11:26:19;1.70;99.90
7167;DHT22;3625;51.762;14.320;2022-12-10T11:29:22;1.70;99.90
7167;DHT22;3625;51.762;14.320;2022-12-10T11:32:24;1.70;99.90
7167;DHT22;3625;51.762;14.320;2022-12-10T11:35:10;1.60;99.90
7167;DHT22;3625;51.762;14.320;2022-12-10T11:37:47;1.50;99.90
7167;DHT22;3625;51.762;14.320;2022-12-10T11:40:33;1.60;99.90
7167;DHT22;3625;51.762;14.320;2022-12-10T11:43:21;1.50;99.90
7167;DHT22;3625;51.762;14.320;2022-12-10T11:46:26;1.40;99.90
7167;DHT22;3625;51.762;14.320;2022-12-10T11:49:16;1.60;99.90
7167;DHT22;3625;51.762;14.320;2022-12-10T11:51:57;1.60;99.90
7167;DHT22;3625;51.762;14.320;2022-12-10T11:54:52;1.60;99.90
7167;DHT22;3625;51.762;14.320;2022-12-10T11:57:43;1.40;99.90
7167;DHT22;3625;51.762;14.320;2022-12-10T12:00:22;1.40;99.90
7167;DHT22;3625;51.762;14.320;2022-12-10T12:03:30;1.40;99.90
7167;DHT22;3625;51.762;14.320;2022-12-10T12:09:25;1.30;99.90
7167;DHT22;3625;51.762;14.320;2022-12-10T12:12:11;1.40;99.90
7167;DHT22;3625;51.762;14.320;2022-12-10T12:14:53;1.50;99.90
7167;DHT22;3625;51.762;14.320;2022-12-10T12:17:28;1.50;99.90
7167;DHT22;3625;51.762;14.320;2022-12-10T12:20:04;1.50;99.90
7167;DHT22;3625;51.762;14.320;2022-12-10T12:22:48;1.50;99.90
7167;DHT22;3625;51.762;14.320;2022-12-10T12:25:23;1.50;99.90
7167;DHT22;3625;51.762;14.320;2022-12-10T12:28:03;1.60;99.90
7167;DHT22;3625;51.762;14.320;2022-12-10T12:30:39;1.60;99.90
7167;DHT22;3625;51.762;14.320;2022-12-10T12:33:19;1.60;99.90
7167;DHT22;3625;51.762;14.320;2022-12-10T12:35:59;1.40;99.90
7167;DHT22;3625;51.762;14.320;2022-12-10T12:38:39;1.40;99.90
7167;DHT22;3625;51.762;14.320;2022-12-10T12:41:17;1.50;99.90
7167;DHT22;3625;51.762;14.320;2022-12-10T12:44:00;1.50;99.90
7167;DHT22;3625;51.762;14.320;2022-12-10T12:46:39;1.30;99.90
7167;DHT22;3625;51.762;14.320;2022-12-10T12:49:15;1.30;99.90
7167;DHT22;3625;51.762;14.320;2022-12-10T12:51:53;1.50;99.90
7167;DHT22;3625;51.762;14.320;2022-12-10T12:57:02;1.40;99.90
7167;DHT22;3625;51.762;14.320;2022-12-10T12:59:53;0.20;99.90
7167;DHT22;3625;51.762;14.320;2022-12-10T13:02:42;1.40;99.90
7167;DHT22;3625;51.762;14.320;2022-12-10T13:05:24;1.30;99.90
7167;DHT22;3625;51.762;14.320;2022-12-10T13:08:23;1.30;99.90
7167;DHT22;3625;51.762;14.320;2022-12-10T13:13:30;1.30;99.90
7167;DHT22;3625;51.762;14.320;2022-12-10T13:16:35;1.30;99.90
7167;DHT22;3625;51.762;14.320;2022-12-10T13:19:32;1.30;99.90
7167;DHT22;3625;51.762;14.320;2022-12-10T13:22:08;1.20;99.90
7167;DHT22;3625;51.762;14.320;2022-12-10T13:25:03;1.30;99.90
7167;DHT22;3625;51.762;14.320;2022-12-10T13:27:38;1.20;99.90
7167;DHT22;3625;51.762;14.320;2022-12-10T13:30:30;1.20;99.90
7167;DHT22;3625;51.762;14.320;2022-12-10T13:33:15;1.10;99.90
7167;DHT22;3625;51.762;14.320;2022-12-10T13:35:55;1.30;99.90
7167;DHT22;3625;51.762;14.320;2022-12-10T13:38:40;1.30;99.90
7167;DHT22;3625;51.762;14.320;2022-12-10T13:44:00;1.30;99.90
7167;DHT22;3625;51.762;14.320;2022-12-10T13:46:55;1.30;99.90
7167;DHT22;3625;51.762;14.320;2022-12-10T13:49:28;1.40;99.90
7167;DHT22;3625;51.762;14.320;2022-12-10T13:52:00;1.30;99.90
7167;DHT22;3625;51.762;14.320;2022-12-10T13:55:02;1.30;99.90
7167;DHT22;3625;51.762;14.320;2022-12-10T13:58:09;1.20;99.90
7167;DHT22;3625;51.762;14.320;2022-12-10T14:00:56;1.10;99.90
7167;DHT22;3625;51.762;14.320;2022-12-10T14:03:45;1.10;99.90
7167;DHT22;3625;51.762;14.320;2022-12-10T14:06:33;1.20;99.90
7167;DHT22;3625;51.762;14.320;2022-12-10T14:09:06;1.10;99.90
7167;DHT22;3625;51.762;14.320;2022-12-10T14:11:43;1.00;99.90
7167;DHT22;3625;51.762;14.320;2022-12-10T14:14:23;1.00;99.90
7167;DHT22;3625;51.762;14.320;2022-12-10T14:17:00;1.10;99.90
7167;DHT22;3625;51.762;14.320;2022-12-10T14:19:33;1.00;99.90
7167;DHT22;3625;51.762;14.320;2022-12-10T14:22:05;1.10;99.90
7167;DHT22;3625;51.762;14.320;2022-12-10T14:24:36;1.00;99.90
7167;DHT22;3625;51.762;14.320;2022-12-10T14:27:12;0.80;99.90
7167;DHT22;3625;51.762;14.320;2022-12-10T14:29:46;0.90;99.90
7167;DHT22;3625;51.762;14.320;2022-12-10T14:32:18;0.80;99.90
7167;DHT22;3625;51.762;14.320;2022-12-10T14:34:52;0.80;99.90
7167;DHT22;3625;51.762;14.320;2022-12-10T14:37:25;0.80;99.90
7167;DHT22;3625;51.762;14.320;2022-12-10T14:44:58;0.70;99.90
7167;DHT22;3625;51.762;14.320;2022-12-10T14:47:32;0.70;99.90
7167;DHT22;3625;51.762;14.320;2022-12-10T14:50:14;0.60;99.90
7167;DHT22;3625;51.762;14.320;2022-12-10T14:52:49;0.60;99.90
7167;DHT22;3625;51.762;14.320;2022-12-10T14:55:21;0.50;99.90
7167;DHT22;3625;51.762;14.320;2022-12-10T14:57:54;0.50;99.90
7167;DHT22;3625;51.762;14.320;2022-12-10T15:00:27;0.50;99.90
7167;DHT22;3625;51.762;14.320;2022-12-10T15:02:57;0.40;99.90
7167;DHT22;3625;51.762;14.320;2022-12-10T15:05:29;0.40;99.90
7167;DHT22;3625;51.762;14.320;2022-12-10T15:08:02;0.30;99.90
7167;DHT22;3625;51.762;14.320;2022-12-10T15:10:34;0.40;99.90
7167;DHT22;3625;51.762;14.320;2022-12-10T15:13:05;0.40;99.90
7167;DHT22;3625;51.762;14.320;2022-12-10T15:15:38;0.40;99.90
7167;DHT22;3625;51.762;14.320;2022-12-10T15:18:11;0.40;99.90
7167;DHT22;3625;51.762;14.320;2022-12-10T15:20:46;0.30;99.90
7167;DHT22;3625;51.762;14.320;2022-12-10T15:23:19;0.30;99.90
7167;DHT22;3625;51.762;14.320;2022-12-10T15:25:57;0.40;99.90
7167;DHT22;3625;51.762;14.320;2022-12-10T15:28:30;0.40;99.90
7167;DHT22;3625;51.762;14.320;2022-12-10T15:31:18;0.40;99.90
7167;DHT22;3625;51.762;14.320;2022-12-10T15:33:52;0.40;99.90
7167;DHT22;3625;51.762;14.320;2022-12-10T15:36:27;0.40;99.90
7167;DHT22;3625;51.762;14.320;2022-12-10T15:41:43;0.30;99.90
7167;DHT22;3625;51.762;14.320;2022-12-10T15:44:25;0.30;99.90
7167;DHT22;3625;51.762;14.320;2022-12-10T15:47:02;0.40;99.90
7167;DHT22;3625;51.762;14.320;2022-12-10T15:52:06;0.30;99.90
7167;DHT22;3625;51.762;14.320;2022-12-10T15:54:41;0.20;99.90
7167;DHT22;3625;51.762;14.320;2022-12-10T15:57:13;0.20;99.90
7167;DHT22;3625;51.762;14.320;2022-12-10T15:59:54;0.20;99.90
7167;DHT22;3625;51.762;14.320;2022-12-10T16:02:34;0.20;99.90
7167;DHT22;3625;51.762;14.320;2022-12-10T16:05:13;0.20;99.90
7167;DHT22;3625;51.762;14.320;2022-12-10T16:07:44;0.20;99.90
7167;DHT22;3625;51.762;14.320;2022-12-10T16:13:03;0.20;99.90
7167;DHT22;3625;51.762;14.320;2022-12-10T16:15:36;0.20;99.90
7167;DHT22;3625;51.762;14.320;2022-12-10T16:18:10;0.20;99.90
7167;DHT22;3625;51.762;14.320;2022-12-10T16:28:17;0.10;99.90
7167;DHT22;3625;51.762;14.320;2022-12-10T16:30:47;0.10;99.90
7167;DHT22;3625;51.762;14.320;2022-12-10T16:33:20;0.10;99.90
7167;DHT22;3625;51.762;14.320;2022-12-10T16:35:51;0.10;99.90
7167;DHT22;3625;51.762;14.320;2022-12-10T16:43:22;0.00;99.90
7167;DHT22;3625;51.762;14.320;2022-12-10T16:50:53;0.00;99.90
7167;DHT22;3625;51.762;14.320;2022-12-10T16:56:06;0.20;99.90
7167;DHT22;3625;51.762;14.320;2022-12-10T17:01:18;0.10;99.90
7167;DHT22;3625;51.762;14.320;2022-12-10T17:03:50;0.10;99.90
7167;DHT22;3625;51.762;14.320;2022-12-10T17:06:20;0.20;99.90
7167;DHT22;3625;51.762;14.320;2022-12-10T17:08:49;0.10;99.90
7167;DHT22;3625;51.762;14.320;2022-12-10T17:11:20;0.10;99.90
7167;DHT22;3625;51.762;14.320;2022-12-10T17:14:21;0.20;99.90
7167;DHT22;3625;51.762;14.320;2022-12-10T17:16:54;0.10;99.90
7167;DHT22;3625;51.762;14.320;2022-12-10T17:26:55;0.10;99.90
7167;DHT22;3625;51.762;14.320;2022-12-10T17:29:29;0.10;99.90
7167;DHT22;3625;51.762;14.320;2022-12-10T17:32:03;0.10;99.90
7167;DHT22;3625;51.762;14.320;2022-12-10T17:34:34;0.00;99.90
7167;DHT22;3625;51.762;14.320;2022-12-10T17:37:09;0.00;99.90
7167;DHT22;3625;51.762;14.320;2022-12-10T17:47:16;2.30;99.90
7167;DHT22;3625;51.762;14.320;2022-12-10T17:49:50;0.00;99.90
7167;DHT22;3625;51.762;14.320;2022-12-10T17:57:23;-0.10;99.90
7167;DHT22;3625;51.762;14.320;2022-12-10T18:04:51;-0.10;99.90
7167;DHT22;3625;51.762;14.320;2022-12-10T18:14:46;-0.20;99.90
7167;DHT22;3625;51.762;14.320;2022-12-10T18:17:15;-0.20;99.90
7167;DHT22;3625;51.762;14.320;2022-12-10T18:19:44;-0.20;99.90
7167;DHT22;3625;51.762;14.320;2022-12-10T18:22:20;-0.20;99.90
7167;DHT22;3625;51.762;14.320;2022-12-10T18:27:18;0.20;99.90
7167;DHT22;3625;51.762;14.320;2022-12-10T18:34:47;0.00;99.90
7167;DHT22;3625;51.762;14.320;2022-12-10T18:57:12;-0.10;99.90
7167;DHT22;3625;51.762;14.320;2022-12-10T19:12:28;-0.20;99.90
7167;DHT22;3625;51.762;14.320;2022-12-10T19:27:20;-0.10;99.90
7167;DHT22;3625;51.762;14.320;2022-12-10T19:29:51;-0.10;99.90
7167;DHT22;3625;51.762;14.320;2022-12-10T20:02:12;-0.40;99.90
7167;DHT22;3625;51.762;14.320;2022-12-10T20:04:42;-0.30;99.90
7167;DHT22;3625;51.762;14.320;2022-12-10T20:09:39;-0.30;99.90
7167;DHT22;3625;51.762;14.320;2022-12-10T20:12:08;-0.50;99.90
7167;DHT22;3625;51.762;14.320;2022-12-10T20:14:37;-0.40;99.90
7167;DHT22;3625;51.762;14.320;2022-12-10T20:17:08;-0.40;99.90
7167;DHT22;3625;51.762;14.320;2022-12-10T20:22:09;-0.30;99.90
7167;DHT22;3625;51.762;14.320;2022-12-10T20:24:37;-0.30;99.90
7167;DHT22;3625;51.762;14.320;2022-12-10T20:27:10;-0.30;99.90
7167;DHT22;3625;51.762;14.320;2022-12-10T20:32:11;-0.30;99.90
7167;DHT22;3625;51.762;14.320;2022-12-10T20:37:11;-0.40;99.90
7167;DHT22;3625;51.762;14.320;2022-12-10T20:49:51;-0.50;99.90
7167;DHT22;3625;51.762;14.320;2022-12-10T21:02:20;-0.60;99.90
7167;DHT22;3625;51.762;14.320;2022-12-10T21:14:58;-0.50;99.90
7167;DHT22;3625;51.762;14.320;2022-12-10T21:17:37;-0.40;99.90
7167;DHT22;3625;51.762;14.320;2022-12-10T21:25:08;-0.40;99.90
7167;DHT22;3625;51.762;14.320;2022-12-10T21:30:10;-0.40;99.90
7167;DHT22;3625;51.762;14.320;2022-12-10T21:32:40;-0.50;99.90
7167;DHT22;3625;51.762;14.320;2022-12-10T21:35:12;-1.60;99.90
7167;DHT22;3625;51.762;14.320;2022-12-10T21:40:13;-0.60;99.90
7167;DHT22;3625;51.762;14.320;2022-12-10T21:45:30;-0.60;99.90
7167;DHT22;3625;51.762;14.320;2022-12-10T21:48:00;-0.50;99.90
7167;DHT22;3625;51.762;14.320;2022-12-10T21:50:29;-0.50;99.90
7167;DHT22;3625;51.762;14.320;2022-12-10T22:02:58;-0.70;99.90
7167;DHT22;3625;51.762;14.320;2022-12-10T22:07:56;-0.80;99.90
7167;DHT22;3625;51.762;14.320;2022-12-10T22:10:26;-0.80;99.90
7167;DHT22;3625;51.762;14.320;2022-12-10T22:12:56;-0.80;99.90
7167;DHT22;3625;51.762;14.320;2022-12-10T22:25:26;-0.90;99.90
7167;DHT22;3625;51.762;14.320;2022-12-10T22:27:58;-0.90;99.90
7167;DHT22;3625;51.762;14.320;2022-12-10T22:30:30;-0.80;99.90
7167;DHT22;3625;51.762;14.320;2022-12-10T22:35:39;-0.90;99.90
7167;DHT22;3625;51.762;14.320;2022-12-10T22:38:10;-0.80;99.90
7167;DHT22;3625;51.762;14.320;2022-12-10T22:40:41;-0.90;99.90
7167;DHT22;3625;51.762;14.320;2022-12-10T22:45:58;-0.90;99.90
7167;DHT22;3625;51.762;14.320;2022-12-10T22:48:27;-0.90;99.90
7167;DHT22;3625;51.762;14.320;2022-12-10T22:50:59;-0.90;99.90
7167;DHT22;3625;51.762;14.320;2022-12-10T22:56:00;-0.90;99.90
7167;DHT22;3625;51.762;14.320;2022-12-10T23:13:27;-1.00;99.90
7167;DHT22;3625;51.762;14.320;2022-12-10T23:16:04;-1.10;99.90
7167;DHT22;3625;51.762;14.320;2022-12-10T23:33:38;-1.10;99.90
7167;DHT22;3625;51.762;14.320;2022-12-10T23:36:08;-1.10;99.90
7167;DHT22;3625;51.762;14.320;2022-12-10T23:41:08;-1.10;99.90
7167;DHT22;3625;51.762;14.320;2022-12-10T23:56:14;-1.10;99.90
7167;DHT22;3625;51.762;14.320;2022-12-10T23:58:45;-1.20;99.90
